sensor_id;sensor_type;location;lat;lon;timestamp;temperature;humidity
31575;DHT22;18182;1.328;103.810;2022-08-25T00:01:17;28.60;99.90
31575;DHT22;18182;1.328;103.810;2022-08-25T00:03:43;28.70;99.90
31575;DHT22;18182;1.328;103.810;2022-08-25T00:06:10;28.60;99.90
31575;DHT22;18182;1.328;103.810;2022-08-25T00:08:36;28.60;99.90
31575;DHT22;18182;1.328;103.810;2022-08-25T00:11:04;28.60;99.90
31575;DHT22;18182;1.328;103.810;2022-08-25T00:13:30;28.60;99.90
31575;DHT22;18182;1.328;103.810;2022-08-25T00:15:57;28.60;99.90
31575;DHT22;18182;1.328;103.810;2022-08-25T00:18:23;28.60;99.90
31575;DHT22;18182;1.328;103.810;2022-08-25T00:20:49;28.70;99.90
31575;DHT22;18182;1.328;103.810;2022-08-25T00:23:16;28.70;99.90
31575;DHT22;18182;1.328;103.810;2022-08-25T00:25:44;28.70;99.90
31575;DHT22;18182;1.328;103.810;2022-08-25T00:28:10;28.70;99.90
31575;DHT22;18182;1.328;103.810;2022-08-25T00:30:37;28.80;99.90
31575;DHT22;18182;1.328;103.810;2022-08-25T00:33:03;28.90;99.90
31575;DHT22;18182;1.328;103.810;2022-08-25T00:35:29;29.00;99.90
31575;DHT22;18182;1.328;103.810;2022-08-25T00:37:55;29.10;99.90
31575;DHT22;18182;1.328;103.810;2022-08-25T00:40:22;29.10;99.90
31575;DHT22;18182;1.328;103.810;2022-08-25T00:42:49;29.10;99.90
31575;DHT22;18182;1.328;103.810;2022-08-25T00:45:15;29.20;99.90
31575;DHT22;18182;1.328;103.810;2022-08-25T00:47:42;29.20;99.90
31575;DHT22;18182;1.328;103.810;2022-08-25T00:50:09;29.20;99.90
31575;DHT22;18182;1.328;103.810;2022-08-25T00:52:37;29.20;99.90
31575;DHT22;18182;1.328;103.810;2022-08-25T00:55:15;29.20;99.90
31575;DHT22;18182;1.328;103.810;2022-08-25T00:57:43;29.20;99.90
31575;DHT22;18182;1.328;103.810;2022-08-25T01:00:14;29.30;99.90
31575;DHT22;18182;1.328;103.810;2022-08-25T01:02:41;29.30;99.90
31575;DHT22;18182;1.328;103.810;2022-08-25T01:05:08;29.30;99.90
31575;DHT22;18182;1.328;103.810;2022-08-25T01:07:34;29.30;99.90
31575;DHT22;18182;1.328;103.810;2022-08-25T01:10:01;29.40;99.90
31575;DHT22;18182;1.328;103.810;2022-08-25T01:12:27;29.40;99.90
31575;DHT22;18182;1.328;103.810;2022-08-25T01:14:53;29.50;99.90
31575;DHT22;18182;1.328;103.810;2022-08-25T01:17:21;29.50;99.90
31575;DHT22;18182;1.328;103.810;2022-08-25T01:19:47;29.50;99.90
31575;DHT22;18182;1.328;103.810;2022-08-25T01:22:13;29.40;99.90
31575;DHT22;18182;1.328;103.810;2022-08-25T01:27:06;29.50;99.90
31575;DHT22;18182;1.328;103.810;2022-08-25T01:29:33;29.50;99.90
31575;DHT22;18182;1.328;103.810;2022-08-25T01:32:02;29.40;99.90
31575;DHT22;18182;1.328;103.810;2022-08-25T01:34:33;29.40;99.90
31575;DHT22;18182;1.328;103.810;2022-08-25T01:36:59;29.50;99.90
31575;DHT22;18182;1.328;103.810;2022-08-25T01:39:27;29.50;99.90
31575;DHT22;18182;1.328;103.810;2022-08-25T01:41:58;29.60;99.90
31575;DHT22;18182;1.328;103.810;2022-08-25T01:44:29;29.60;99.90
31575;DHT22;18182;1.328;103.810;2022-08-25T01:46:56;29.70;99.90
31575;DHT22;18182;1.328;103.810;2022-08-25T01:49:22;29.80;99.90
31575;DHT22;18182;1.328;103.810;2022-08-25T01:52:11;30.00;99.90
31575;DHT22;18182;1.328;103.810;2022-08-25T01:54:34;30.10;99.90
31575;DHT22;18182;1.328;103.810;2022-08-25T01:57:00;30.20;99.90
31575;DHT22;18182;1.328;103.810;2022-08-25T01:59:26;30.20;99.90
31575;DHT22;18182;1.328;103.810;2022-08-25T02:01:53;30.20;99.90
31575;DHT22;18182;1.328;103.810;2022-08-25T02:04:19;30.20;99.90
31575;DHT22;18182;1.328;103.810;2022-08-25T02:06:46;30.20;99.90
31575;DHT22;18182;1.328;103.810;2022-08-25T02:09:13;30.30;99.90
31575;DHT22;18182;1.328;103.810;2022-08-25T02:11:41;30.30;99.90
31575;DHT22;18182;1.328;103.810;2022-08-25T02:14:08;30.20;99.90
31575;DHT22;18182;1.328;103.810;2022-08-25T02:16:37;30.10;99.90
31575;DHT22;18182;1.328;103.810;2022-08-25T02:19:05;30.00;99.90
31575;DHT22;18182;1.328;103.810;2022-08-25T02:21:31;30.00;99.90
31575;DHT22;18182;1.328;103.810;2022-08-25T02:23:58;30.00;99.90
31575;DHT22;18182;1.328;103.810;2022-08-25T02:26:24;30.10;99.90
31575;DHT22;18182;1.328;103.810;2022-08-25T02:28:50;30.10;99.90
31575;DHT22;18182;1.328;103.810;2022-08-25T02:31:18;30.20;99.90
31575;DHT22;18182;1.328;103.810;2022-08-25T02:33:47;30.20;99.90
31575;DHT22;18182;1.328;103.810;2022-08-25T02:36:13;30.20;99.90
31575;DHT22;18182;1.328;103.810;2022-08-25T02:38:40;30.30;99.90
31575;DHT22;18182;1.328;103.810;2022-08-25T02:41:11;30.40;99.90
31575;DHT22;18182;1.328;103.810;2022-08-25T02:43:38;30.40;99.90
31575;DHT22;18182;1.328;103.810;2022-08-25T02:46:05;30.40;99.90
31575;DHT22;18182;1.328;103.810;2022-08-25T02:48:31;30.30;99.90
31575;DHT22;18182;1.328;103.810;2022-08-25T02:50:58;30.20;99.90
31575;DHT22;18182;1.328;103.810;2022-08-25T02:53:25;30.20;99.90
31575;DHT22;18182;1.328;103.810;2022-08-25T02:55:52;30.30;99.90
31575;DHT22;18182;1.328;103.810;2022-08-25T02:58:18;30.40;99.90
31575;DHT22;18182;1.328;103.810;2022-08-25T03:00:44;30.60;99.90
31575;DHT22;18182;1.328;103.810;2022-08-25T03:03:11;30.60;99.90
31575;DHT22;18182;1.328;103.810;2022-08-25T03:05:37;30.60;99.90
31575;DHT22;18182;1.328;103.810;2022-08-25T03:08:04;30.70;99.90
31575;DHT22;18182;1.328;103.810;2022-08-25T03:10:30;30.70;99.90
31575;DHT22;18182;1.328;103.810;2022-08-25T03:12:56;30.80;99.90
31575;DHT22;18182;1.328;103.810;2022-08-25T03:15:24;30.70;99.90
31575;DHT22;18182;1.328;103.810;2022-08-25T03:17:52;30.60;99.90
31575;DHT22;18182;1.328;103.810;2022-08-25T03:20:22;30.60;99.90
31575;DHT22;18182;1.328;103.810;2022-08-25T03:22:49;30.60;99.90
31575;DHT22;18182;1.328;103.810;2022-08-25T03:25:16;30.50;99.90
31575;DHT22;18182;1.328;103.810;2022-08-25T03:28:01;30.40;99.90
31575;DHT22;18182;1.328;103.810;2022-08-25T03:30:28;30.50;99.90
31575;DHT22;18182;1.328;103.810;2022-08-25T03:32:54;30.50;99.90
31575;DHT22;18182;1.328;103.810;2022-08-25T03:35:21;30.40;99.90
31575;DHT22;18182;1.328;103.810;2022-08-25T03:37:47;30.30;99.90
31575;DHT22;18182;1.328;103.810;2022-08-25T03:40:14;30.30;99.90
31575;DHT22;18182;1.328;103.810;2022-08-25T03:42:42;30.20;99.90
31575;DHT22;18182;1.328;103.810;2022-08-25T03:45:09;30.20;99.90
31575;DHT22;18182;1.328;103.810;2022-08-25T03:47:39;30.20;99.90
31575;DHT22;18182;1.328;103.810;2022-08-25T03:50:06;30.20;99.90
31575;DHT22;18182;1.328;103.810;2022-08-25T03:52:33;30.20;99.90
31575;DHT22;18182;1.328;103.810;2022-08-25T03:55:00;30.20;99.90
31575;DHT22;18182;1.328;103.810;2022-08-25T03:57:26;30.10;99.90
31575;DHT22;18182;1.328;103.810;2022-08-25T03:59:52;30.20;99.90
31575;DHT22;18182;1.328;103.810;2022-08-25T04:02:18;30.20;99.90
31575;DHT22;18182;1.328;103.810;2022-08-25T04:04:45;30.30;99.90
31575;DHT22;18182;1.328;103.810;2022-08-25T04:07:11;30.30;99.90
31575;DHT22;18182;1.328;103.810;2022-08-25T04:09:37;30.30;99.90
31575;DHT22;18182;1.328;103.810;2022-08-25T04:12:03;30.30;99.90
31575;DHT22;18182;1.328;103.810;2022-08-25T04:14:29;30.40;99.90
31575;DHT22;18182;1.328;103.810;2022-08-25T04:16:56;30.30;99.90
31575;DHT22;18182;1.328;103.810;2022-08-25T04:19:22;30.30;99.90
31575;DHT22;18182;1.328;103.810;2022-08-25T04:21:48;30.30;99.90
31575;DHT22;18182;1.328;103.810;2022-08-25T04:24:14;30.30;99.90
31575;DHT22;18182;1.328;103.810;2022-08-25T04:26:45;30.40;99.90
31575;DHT22;18182;1.328;103.810;2022-08-25T04:29:13;30.50;99.90
31575;DHT22;18182;1.328;103.810;2022-08-25T04:31:40;30.50;99.90
31575;DHT22;18182;1.328;103.810;2022-08-25T04:34:07;30.50;99.90
31575;DHT22;18182;1.328;103.810;2022-08-25T04:36:33;30.60;99.90
31575;DHT22;18182;1.328;103.810;2022-08-25T04:38:59;30.60;99.90
31575;DHT22;18182;1.328;103.810;2022-08-25T04:41:26;30.60;99.90
31575;DHT22;18182;1.328;103.810;2022-08-25T04:43:54;30.70;99.90
31575;DHT22;18182;1.328;103.810;2022-08-25T04:46:22;30.70;99.90
31575;DHT22;18182;1.328;103.810;2022-08-25T04:48:49;30.60;99.90
31575;DHT22;18182;1.328;103.810;2022-08-25T04:51:17;30.40;99.90
31575;DHT22;18182;1.328;103.810;2022-08-25T04:53:43;30.20;99.90
31575;DHT22;18182;1.328;103.810;2022-08-25T04:56:11;29.90;99.90
31575;DHT22;18182;1.328;103.810;2022-08-25T04:58:37;29.80;99.90
31575;DHT22;18182;1.328;103.810;2022-08-25T05:01:09;29.60;99.90
31575;DHT22;18182;1.328;103.810;2022-08-25T05:03:36;29.60;99.90
31575;DHT22;18182;1.328;103.810;2022-08-25T05:06:03;29.60;99.90
31575;DHT22;18182;1.328;103.810;2022-08-25T05:08:30;29.70;99.90
31575;DHT22;18182;1.328;103.810;2022-08-25T05:10:56;29.80;99.90
31575;DHT22;18182;1.328;103.810;2022-08-25T05:13:23;29.90;99.90
31575;DHT22;18182;1.328;103.810;2022-08-25T05:15:51;30.00;99.90
31575;DHT22;18182;1.328;103.810;2022-08-25T05:18:18;30.10;99.90
31575;DHT22;18182;1.328;103.810;2022-08-25T05:20:44;30.20;99.90
31575;DHT22;18182;1.328;103.810;2022-08-25T05:23:10;30.20;99.90
31575;DHT22;18182;1.328;103.810;2022-08-25T05:25:37;30.20;99.90
31575;DHT22;18182;1.328;103.810;2022-08-25T05:28:03;30.20;99.90
31575;DHT22;18182;1.328;103.810;2022-08-25T05:30:29;30.30;99.90
31575;DHT22;18182;1.328;103.810;2022-08-25T05:32:55;30.30;99.90
31575;DHT22;18182;1.328;103.810;2022-08-25T05:35:21;30.20;99.90
31575;DHT22;18182;1.328;103.810;2022-08-25T05:37:48;30.00;99.90
31575;DHT22;18182;1.328;103.810;2022-08-25T05:40:14;29.80;99.90
31575;DHT22;18182;1.328;103.810;2022-08-25T05:42:40;29.70;99.90
31575;DHT22;18182;1.328;103.810;2022-08-25T05:45:06;29.70;99.90
31575;DHT22;18182;1.328;103.810;2022-08-25T05:47:33;29.60;99.90
31575;DHT22;18182;1.328;103.810;2022-08-25T05:49:59;29.50;99.90
31575;DHT22;18182;1.328;103.810;2022-08-25T05:52:26;29.40;99.90
31575;DHT22;18182;1.328;103.810;2022-08-25T05:54:52;29.30;99.90
31575;DHT22;18182;1.328;103.810;2022-08-25T05:57:18;29.30;99.90
31575;DHT22;18182;1.328;103.810;2022-08-25T05:59:45;29.20;99.90
31575;DHT22;18182;1.328;103.810;2022-08-25T06:02:11;29.10;99.90
31575;DHT22;18182;1.328;103.810;2022-08-25T06:04:55;28.90;99.90
31575;DHT22;18182;1.328;103.810;2022-08-25T06:07:23;28.90;99.90
31575;DHT22;18182;1.328;103.810;2022-08-25T06:09:49;29.00;99.90
31575;DHT22;18182;1.328;103.810;2022-08-25T06:12:17;28.90;99.90
31575;DHT22;18182;1.328;103.810;2022-08-25T06:14:43;28.80;99.90
31575;DHT22;18182;1.328;103.810;2022-08-25T06:17:09;28.80;99.90
31575;DHT22;18182;1.328;103.810;2022-08-25T06:19:35;28.80;99.90
31575;DHT22;18182;1.328;103.810;2022-08-25T06:22:02;28.80;99.90
31575;DHT22;18182;1.328;103.810;2022-08-25T06:24:28;28.80;99.90
31575;DHT22;18182;1.328;103.810;2022-08-25T06:26:54;28.80;99.90
31575;DHT22;18182;1.328;103.810;2022-08-25T06:29:21;28.80;99.90
31575;DHT22;18182;1.328;103.810;2022-08-25T06:31:47;28.80;99.90
31575;DHT22;18182;1.328;103.810;2022-08-25T06:34:14;28.80;99.90
31575;DHT22;18182;1.328;103.810;2022-08-25T06:36:41;28.70;99.90
31575;DHT22;18182;1.328;103.810;2022-08-25T06:39:07;28.80;99.90
31575;DHT22;18182;1.328;103.810;2022-08-25T06:41:34;28.80;99.90
31575;DHT22;18182;1.328;103.810;2022-08-25T06:44:00;28.90;99.90
31575;DHT22;18182;1.328;103.810;2022-08-25T06:46:26;28.90;99.90
31575;DHT22;18182;1.328;103.810;2022-08-25T06:48:53;28.90;99.90
31575;DHT22;18182;1.328;103.810;2022-08-25T06:51:19;28.90;99.90
31575;DHT22;18182;1.328;103.810;2022-08-25T06:53:46;28.90;99.90
31575;DHT22;18182;1.328;103.810;2022-08-25T06:56:14;28.90;99.90
31575;DHT22;18182;1.328;103.810;2022-08-25T06:58:40;28.90;99.90
31575;DHT22;18182;1.328;103.810;2022-08-25T07:01:08;28.90;99.90
31575;DHT22;18182;1.328;103.810;2022-08-25T07:03:34;28.90;99.90
31575;DHT22;18182;1.328;103.810;2022-08-25T07:06:01;29.00;99.90
31575;DHT22;18182;1.328;103.810;2022-08-25T07:08:27;29.00;99.90
31575;DHT22;18182;1.328;103.810;2022-08-25T07:10:54;29.00;99.90
31575;DHT22;18182;1.328;103.810;2022-08-25T07:13:20;29.00;99.90
31575;DHT22;18182;1.328;103.810;2022-08-25T07:15:47;29.00;99.90
31575;DHT22;18182;1.328;103.810;2022-08-25T07:18:18;29.00;99.90
31575;DHT22;18182;1.328;103.810;2022-08-25T07:20:44;29.00;99.90
31575;DHT22;18182;1.328;103.810;2022-08-25T07:23:10;29.00;99.90
31575;DHT22;18182;1.328;103.810;2022-08-25T07:25:36;29.10;99.90
31575;DHT22;18182;1.328;103.810;2022-08-25T07:28:03;29.10;99.90
31575;DHT22;18182;1.328;103.810;2022-08-25T07:30:29;29.10;99.90
31575;DHT22;18182;1.328;103.810;2022-08-25T07:32:55;29.20;99.90
31575;DHT22;18182;1.328;103.810;2022-08-25T07:35:22;29.20;99.90
31575;DHT22;18182;1.328;103.810;2022-08-25T07:37:50;29.20;99.90
31575;DHT22;18182;1.328;103.810;2022-08-25T07:40:19;29.30;99.90
31575;DHT22;18182;1.328;103.810;2022-08-25T07:42:47;29.30;99.90
31575;DHT22;18182;1.328;103.810;2022-08-25T07:45:13;29.30;99.90
31575;DHT22;18182;1.328;103.810;2022-08-25T07:47:39;29.40;99.90
31575;DHT22;18182;1.328;103.810;2022-08-25T07:50:06;29.40;99.90
31575;DHT22;18182;1.328;103.810;2022-08-25T07:52:32;29.30;99.90
31575;DHT22;18182;1.328;103.810;2022-08-25T07:54:59;29.30;99.90
31575;DHT22;18182;1.328;103.810;2022-08-25T07:57:25;29.30;99.90
31575;DHT22;18182;1.328;103.810;2022-08-25T07:59:52;29.20;99.90
31575;DHT22;18182;1.328;103.810;2022-08-25T08:02:18;29.20;99.90
31575;DHT22;18182;1.328;103.810;2022-08-25T08:04:48;29.20;99.90
31575;DHT22;18182;1.328;103.810;2022-08-25T08:07:16;29.20;99.90
31575;DHT22;18182;1.328;103.810;2022-08-25T08:09:43;29.20;99.90
31575;DHT22;18182;1.328;103.810;2022-08-25T08:12:09;29.20;99.90
31575;DHT22;18182;1.328;103.810;2022-08-25T08:14:36;29.20;99.90
31575;DHT22;18182;1.328;103.810;2022-08-25T08:17:06;29.20;99.90
31575;DHT22;18182;1.328;103.810;2022-08-25T08:19:33;29.20;99.90
31575;DHT22;18182;1.328;103.810;2022-08-25T08:21:59;29.20;99.90
31575;DHT22;18182;1.328;103.810;2022-08-25T08:24:27;29.20;99.90
31575;DHT22;18182;1.328;103.810;2022-08-25T08:26:53;29.20;99.90
31575;DHT22;18182;1.328;103.810;2022-08-25T08:29:20;29.20;99.90
31575;DHT22;18182;1.328;103.810;2022-08-25T08:31:47;29.20;99.90
31575;DHT22;18182;1.328;103.810;2022-08-25T08:34:14;29.20;99.90
31575;DHT22;18182;1.328;103.810;2022-08-25T08:36:40;29.10;99.90
31575;DHT22;18182;1.328;103.810;2022-08-25T08:39:06;29.00;99.90
31575;DHT22;18182;1.328;103.810;2022-08-25T08:57:51;28.80;99.90
31575;DHT22;18182;1.328;103.810;2022-08-25T09:00:20;28.90;99.90
31575;DHT22;18182;1.328;103.810;2022-08-25T09:02:51;28.90;99.90
31575;DHT22;18182;1.328;103.810;2022-08-25T09:05:18;29.00;99.90
31575;DHT22;18182;1.328;103.810;2022-08-25T09:10:13;29.00;99.90
31575;DHT22;18182;1.328;103.810;2022-08-25T09:12:45;29.00;99.90
31575;DHT22;18182;1.328;103.810;2022-08-25T09:15:58;29.00;99.90
31575;DHT22;18182;1.328;103.810;2022-08-25T09:18:23;29.00;99.90
31575;DHT22;18182;1.328;103.810;2022-08-25T09:26:15;29.10;99.90
31575;DHT22;18182;1.328;103.810;2022-08-25T09:31:33;29.10;99.90
31575;DHT22;18182;1.328;103.810;2022-08-25T09:33:59;29.10;99.90
31575;DHT22;18182;1.328;103.810;2022-08-25T09:36:26;29.10;99.90
31575;DHT22;18182;1.328;103.810;2022-08-25T09:38:52;29.10;99.90
31575;DHT22;18182;1.328;103.810;2022-08-25T09:41:42;29.10;99.90
31575;DHT22;18182;1.328;103.810;2022-08-25T09:44:19;29.00;99.90
31575;DHT22;18182;1.328;103.810;2022-08-25T09:46:57;29.00;99.90
31575;DHT22;18182;1.328;103.810;2022-08-25T09:49:30;29.00;99.90
31575;DHT22;18182;1.328;103.810;2022-08-25T09:51:56;29.00;99.90
31575;DHT22;18182;1.328;103.810;2022-08-25T09:54:41;29.00;99.90
31575;DHT22;18182;1.328;103.810;2022-08-25T09:57:07;29.00;99.90
31575;DHT22;18182;1.328;103.810;2022-08-25T09:59:34;28.90;99.90
31575;DHT22;18182;1.328;103.810;2022-08-25T10:02:03;28.90;99.90
31575;DHT22;18182;1.328;103.810;2022-08-25T10:04:31;28.90;99.90
31575;DHT22;18182;1.328;103.810;2022-08-25T10:06:57;28.90;99.90
31575;DHT22;18182;1.328;103.810;2022-08-25T10:09:26;28.90;99.90
31575;DHT22;18182;1.328;103.810;2022-08-25T10:11:54;28.80;99.90
31575;DHT22;18182;1.328;103.810;2022-08-25T10:14:36;28.80;99.90
31575;DHT22;18182;1.328;103.810;2022-08-25T10:17:25;28.70;99.90
31575;DHT22;18182;1.328;103.810;2022-08-25T10:20:13;28.70;99.90
31575;DHT22;18182;1.328;103.810;2022-08-25T10:22:38;28.60;99.90
31575;DHT22;18182;1.328;103.810;2022-08-25T10:25:06;28.60;99.90
31575;DHT22;18182;1.328;103.810;2022-08-25T10:36:12;28.60;99.90
31575;DHT22;18182;1.328;103.810;2022-08-25T10:38:12;28.60;99.90
31575;DHT22;18182;1.328;103.810;2022-08-25T10:43:30;28.50;99.90
31575;DHT22;18182;1.328;103.810;2022-08-25T10:56:40;28.30;99.90
31575;DHT22;18182;1.328;103.810;2022-08-25T10:59:25;28.20;99.90
31575;DHT22;18182;1.328;103.810;2022-08-25T11:02:01;28.20;99.90
31575;DHT22;18182;1.328;103.810;2022-08-25T11:04:43;28.30;99.90
31575;DHT22;18182;1.328;103.810;2022-08-25T11:07:32;28.30;99.90
31575;DHT22;18182;1.328;103.810;2022-08-25T11:09:58;28.50;99.90
31575;DHT22;18182;1.328;103.810;2022-08-25T11:12:32;28.50;99.90
31575;DHT22;18182;1.328;103.810;2022-08-25T11:15:06;28.50;99.90
31575;DHT22;18182;1.328;103.810;2022-08-25T11:17:54;28.60;99.90
31575;DHT22;18182;1.328;103.810;2022-08-25T11:20:30;28.60;99.90
31575;DHT22;18182;1.328;103.810;2022-08-25T11:23:10;28.60;99.90
31575;DHT22;18182;1.328;103.810;2022-08-25T11:25:41;28.70;99.90
31575;DHT22;18182;1.328;103.810;2022-08-25T11:28:20;28.70;99.90
31575;DHT22;18182;1.328;103.810;2022-08-25T11:30:48;28.70;99.90
31575;DHT22;18182;1.328;103.810;2022-08-25T11:33:16;28.70;99.90
31575;DHT22;18182;1.328;103.810;2022-08-25T11:35:46;28.70;99.90
31575;DHT22;18182;1.328;103.810;2022-08-25T11:48:29;28.80;99.90
31575;DHT22;18182;1.328;103.810;2022-08-25T11:51:03;28.80;99.90
31575;DHT22;18182;1.328;103.810;2022-08-25T11:53:34;28.70;99.90
31575;DHT22;18182;1.328;103.810;2022-08-25T11:56:03;28.80;99.90
31575;DHT22;18182;1.328;103.810;2022-08-25T11:58:31;28.80;99.90
31575;DHT22;18182;1.328;103.810;2022-08-25T12:00:59;28.80;99.90
31575;DHT22;18182;1.328;103.810;2022-08-25T12:14:45;28.80;99.90
31575;DHT22;18182;1.328;103.810;2022-08-25T12:35:21;28.90;99.90
31575;DHT22;18182;1.328;103.810;2022-08-25T12:38:33;28.80;99.90
31575;DHT22;18182;1.328;103.810;2022-08-25T12:45:38;28.80;99.90
31575;DHT22;18182;1.328;103.810;2022-08-25T12:50:59;28.70;99.90
31575;DHT22;18182;1.328;103.810;2022-08-25T12:53:33;28.70;99.90
31575;DHT22;18182;1.328;103.810;2022-08-25T12:56:23;28.70;99.90
31575;DHT22;18182;1.328;103.810;2022-08-25T13:12:25;28.60;99.90
31575;DHT22;18182;1.328;103.810;2022-08-25T13:14:55;28.60;99.90
31575;DHT22;18182;1.328;103.810;2022-08-25T13:17:26;28.60;99.90
31575;DHT22;18182;1.328;103.810;2022-08-25T13:20:09;28.50;99.90
31575;DHT22;18182;1.328;103.810;2022-08-25T13:22:35;28.60;99.90
31575;DHT22;18182;1.328;103.810;2022-08-25T13:25:02;28.60;99.90
31575;DHT22;18182;1.328;103.810;2022-08-25T13:27:34;28.60;99.90
31575;DHT22;18182;1.328;103.810;2022-08-25T13:30:01;28.60;99.90
31575;DHT22;18182;1.328;103.810;2022-08-25T13:32:31;28.60;99.90
31575;DHT22;18182;1.328;103.810;2022-08-25T13:35:58;28.70;99.90
31575;DHT22;18182;1.328;103.810;2022-08-25T13:37:53;28.70;99.90
31575;DHT22;18182;1.328;103.810;2022-08-25T13:40:21;28.70;99.90
31575;DHT22;18182;1.328;103.810;2022-08-25T13:42:49;28.70;99.90
31575;DHT22;18182;1.328;103.810;2022-08-25T13:45:17;28.70;99.90
31575;DHT22;18182;1.328;103.810;2022-08-25T13:47:44;28.80;99.90
31575;DHT22;18182;1.328;103.810;2022-08-25T13:52:40;28.80;99.90
31575;DHT22;18182;1.328;103.810;2022-08-25T13:55:06;28.80;99.90
31575;DHT22;18182;1.328;103.810;2022-08-25T13:57:32;28.80;99.90
31575;DHT22;18182;1.328;103.810;2022-08-25T14:00:00;28.80;99.90
31575;DHT22;18182;1.328;103.810;2022-08-25T14:02:46;28.80;99.90
31575;DHT22;18182;1.328;103.810;2022-08-25T14:05:13;28.80;99.90
31575;DHT22;18182;1.328;103.810;2022-08-25T14:08:03;28.80;99.90
31575;DHT22;18182;1.328;103.810;2022-08-25T14:13:10;28.80;99.90
31575;DHT22;18182;1.328;103.810;2022-08-25T14:15:36;28.80;99.90
31575;DHT22;18182;1.328;103.810;2022-08-25T14:18:04;28.80;99.90
31575;DHT22;18182;1.328;103.810;2022-08-25T14:20:32;28.70;99.90
31575;DHT22;18182;1.328;103.810;2022-08-25T14:23:03;28.70;99.90
31575;DHT22;18182;1.328;103.810;2022-08-25T14:25:30;28.80;99.90
31575;DHT22;18182;1.328;103.810;2022-08-25T14:28:07;28.80;99.90
31575;DHT22;18182;1.328;103.810;2022-08-25T14:30:36;28.80;99.90
31575;DHT22;18182;1.328;103.810;2022-08-25T14:33:04;28.80;99.90
31575;DHT22;18182;1.328;103.810;2022-08-25T14:35:30;28.80;99.90
31575;DHT22;18182;1.328;103.810;2022-08-25T14:37:56;28.80;99.90
31575;DHT22;18182;1.328;103.810;2022-08-25T14:40:22;28.80;99.90
31575;DHT22;18182;1.328;103.810;2022-08-25T14:42:49;28.90;99.90
31575;DHT22;18182;1.328;103.810;2022-08-25T14:45:15;28.80;99.90
31575;DHT22;18182;1.328;103.810;2022-08-25T14:47:42;28.80;99.90
31575;DHT22;18182;1.328;103.810;2022-08-25T14:50:09;28.80;99.90
31575;DHT22;18182;1.328;103.810;2022-08-25T14:52:36;28.80;99.90
31575;DHT22;18182;1.328;103.810;2022-08-25T14:55:02;28.80;99.90
31575;DHT22;18182;1.328;103.810;2022-08-25T14:57:28;28.80;99.90
31575;DHT22;18182;1.328;103.810;2022-08-25T14:59:54;28.80;99.90
31575;DHT22;18182;1.328;103.810;2022-08-25T15:02:22;28.80;99.90
31575;DHT22;18182;1.328;103.810;2022-08-25T15:04:50;28.80;99.90
31575;DHT22;18182;1.328;103.810;2022-08-25T15:07:17;28.80;99.90
31575;DHT22;18182;1.328;103.810;2022-08-25T15:10:01;28.80;99.90
31575;DHT22;18182;1.328;103.810;2022-08-25T15:12:27;28.80;99.90
31575;DHT22;18182;1.328;103.810;2022-08-25T15:14:54;28.80;99.90
31575;DHT22;18182;1.328;103.810;2022-08-25T15:17:22;28.80;99.90
31575;DHT22;18182;1.328;103.810;2022-08-25T15:19:48;28.80;99.90
31575;DHT22;18182;1.328;103.810;2022-08-25T15:22:17;28.80;99.90
31575;DHT22;18182;1.328;103.810;2022-08-25T15:24:43;28.80;99.90
31575;DHT22;18182;1.328;103.810;2022-08-25T15:27:09;28.80;99.90
31575;DHT22;18182;1.328;103.810;2022-08-25T15:29:37;28.90;99.90
31575;DHT22;18182;1.328;103.810;2022-08-25T15:32:05;28.90;99.90
31575;DHT22;18182;1.328;103.810;2022-08-25T15:34:32;28.80;99.90
31575;DHT22;18182;1.328;103.810;2022-08-25T15:37:04;28.90;99.90
31575;DHT22;18182;1.328;103.810;2022-08-25T15:39:30;28.90;99.90
31575;DHT22;18182;1.328;103.810;2022-08-25T15:41:56;28.90;99.90
31575;DHT22;18182;1.328;103.810;2022-08-25T15:44:23;28.80;99.90
31575;DHT22;18182;1.328;103.810;2022-08-25T15:46:50;28.90;99.90
31575;DHT22;18182;1.328;103.810;2022-08-25T15:49:17;28.90;99.90
31575;DHT22;18182;1.328;103.810;2022-08-25T15:51:44;28.90;99.90
31575;DHT22;18182;1.328;103.810;2022-08-25T15:54:10;28.90;99.90
31575;DHT22;18182;1.328;103.810;2022-08-25T15:56:39;28.80;99.90
31575;DHT22;18182;1.328;103.810;2022-08-25T15:59:05;28.90;99.90
31575;DHT22;18182;1.328;103.810;2022-08-25T16:01:31;28.80;99.90
31575;DHT22;18182;1.328;103.810;2022-08-25T16:03:57;28.80;99.90
31575;DHT22;18182;1.328;103.810;2022-08-25T16:06:29;28.80;99.90
31575;DHT22;18182;1.328;103.810;2022-08-25T16:08:55;28.80;99.90
31575;DHT22;18182;1.328;103.810;2022-08-25T16:11:24;28.70;99.90
31575;DHT22;18182;1.328;103.810;2022-08-25T16:13:51;28.70;99.90
31575;DHT22;18182;1.328;103.810;2022-08-25T16:16:18;28.70;99.90
31575;DHT22;18182;1.328;103.810;2022-08-25T16:18:45;28.70;99.90
31575;DHT22;18182;1.328;103.810;2022-08-25T16:21:12;28.80;99.90
31575;DHT22;18182;1.328;103.810;2022-08-25T16:23:39;28.70;99.90
31575;DHT22;18182;1.328;103.810;2022-08-25T16:26:06;28.70;99.90
31575;DHT22;18182;1.328;103.810;2022-08-25T16:28:36;28.70;99.90
31575;DHT22;18182;1.328;103.810;2022-08-25T16:31:04;28.70;99.90
31575;DHT22;18182;1.328;103.810;2022-08-25T16:33:33;28.70;99.90
31575;DHT22;18182;1.328;103.810;2022-08-25T16:38:31;28.70;99.90
31575;DHT22;18182;1.328;103.810;2022-08-25T16:40:58;28.70;99.90
31575;DHT22;18182;1.328;103.810;2022-08-25T16:43:25;28.70;99.90
31575;DHT22;18182;1.328;103.810;2022-08-25T16:46:01;28.70;99.90
31575;DHT22;18182;1.328;103.810;2022-08-25T16:48:28;28.70;99.90
31575;DHT22;18182;1.328;103.810;2022-08-25T16:50:55;28.60;99.90
31575;DHT22;18182;1.328;103.810;2022-08-25T16:53:23;28.70;99.90
31575;DHT22;18182;1.328;103.810;2022-08-25T16:56:08;28.70;99.90
31575;DHT22;18182;1.328;103.810;2022-08-25T16:58:34;28.70;99.90
31575;DHT22;18182;1.328;103.810;2022-08-25T17:01:07;28.70;99.90
31575;DHT22;18182;1.328;103.810;2022-08-25T17:03:35;28.70;99.90
31575;DHT22;18182;1.328;103.810;2022-08-25T17:06:02;28.70;99.90
31575;DHT22;18182;1.328;103.810;2022-08-25T17:08:28;28.70;99.90
31575;DHT22;18182;1.328;103.810;2022-08-25T17:11:05;28.80;99.90
31575;DHT22;18182;1.328;103.810;2022-08-25T17:13:31;28.80;99.90
31575;DHT22;18182;1.328;103.810;2022-08-25T17:15:58;28.80;99.90
31575;DHT22;18182;1.328;103.810;2022-08-25T17:18:27;28.80;99.90
31575;DHT22;18182;1.328;103.810;2022-08-25T17:20:57;28.80;99.90
31575;DHT22;18182;1.328;103.810;2022-08-25T17:23:23;28.80;99.90